Orlando, Florida
Traffic Map
Current Weather Conditions
Orlando, Florida
Broken Clouds
Broken Clouds
28°
Feels Like: 31°
Wind Chill: 28° Ceiling: 3400
Heat Index: 31° Visibility: 10mi
Dew Point: 23° Wind: 8mph
Humidity: 74% Direction: 190° (S)
Pressure: 29.98in Gusts: 0mph
Raw Report DataKORL 241612Z 19007KT 10SM SCT023 SCT030 BKN034 28/23 A2998 RMK AO2 T02780228
Traffic Incident Summary
Active as of:
Severity:
Category:
InformationThere was an issue retrieving the traffic information for this location. Please try a different location or try again shortly.
Advertisements
Track Severe Weather on mobile